Cottonwood, Idaho
Current Conditions -  °F | °C
As of 12:55 AM on Monday 20 Oct 2014 (Local Time) from KGIC Reporting Station
Clear Clear  
Wind Chill:   Ceiling: Unl
Heat Index: 10°   Visibility: 10mi
Dew Point: -1°   Wind: 6mph
Humidity: 49%   Direction: 160°SSE
Pressure: 29.87"   Gusts: NA
Location:  46.05°N, 116.35°W
Report Text: KGIC 200755Z AUTO 16005KT 10SM CLR 10/00 A2987 RMK AO1 T00991005
Loading
Personal Weather Stations






























Interactive Weather Map
Tropical Storm Tracking
New forecast layout! Learn more

10-Day Weather Forecast

Advertisements
Track Severe Weather on mobile